createdAt,value
2019-04-26T00:00:26.549Z,0
2019-04-26T00:01:25.161Z,0
2019-04-26T00:02:23.697Z,0
2019-04-26T00:07:12.516Z,0
2019-04-26T00:08:11.752Z,0
2019-04-26T00:09:09.381Z,0
2019-04-26T00:10:07.841Z,0
2019-04-26T00:11:06.418Z,0
2019-04-26T00:12:04.952Z,0
2019-04-26T00:13:03.498Z,0
2019-04-26T00:14:02.054Z,0
2019-04-26T00:15:00.621Z,0
2019-04-26T00:15:59.173Z,0
2019-04-26T00:16:57.698Z,0
2019-04-26T00:17:56.662Z,0
2019-04-26T00:18:55.273Z,0
2019-04-26T00:19:53.979Z,0
2019-04-26T00:20:52.547Z,0
2019-04-26T00:21:51.121Z,0
2019-04-26T00:22:49.698Z,0
2019-04-26T00:23:48.302Z,0
2019-04-26T00:24:46.986Z,0
2019-04-26T00:25:45.619Z,0
2019-04-26T00:26:45.031Z,0
2019-04-26T00:27:43.571Z,0
2019-04-26T00:28:42.302Z,0
2019-04-26T00:29:40.943Z,0
2019-04-26T00:30:39.508Z,0
2019-04-26T00:31:38.078Z,0
2019-04-26T00:32:36.607Z,0
2019-04-26T00:33:35.229Z,0
2019-04-26T00:34:33.775Z,0
2019-04-26T00:35:32.370Z,0
2019-04-26T00:36:30.888Z,0
2019-04-26T00:37:29.470Z,0
2019-04-26T00:38:28.071Z,0
2019-04-26T00:39:26.887Z,0
2019-04-26T00:40:25.434Z,0
2019-04-26T00:41:24.055Z,0
2019-04-26T00:42:22.771Z,0
2019-04-26T00:43:21.322Z,0
2019-04-26T00:44:20.782Z,0
2019-04-26T00:45:18.725Z,0
2019-04-26T00:46:17.068Z,0
2019-04-26T00:47:15.638Z,0
2019-04-26T00:48:15.101Z,0
2019-04-26T00:49:13.796Z,0
2019-04-26T00:50:13.710Z,0
2019-04-26T00:51:10.456Z,0
2019-04-26T00:52:09.126Z,0
2019-04-26T00:53:07.693Z,0
2019-04-26T00:54:06.282Z,0
2019-04-26T00:55:04.850Z,0
2019-04-26T00:56:03.405Z,0
2019-04-26T00:57:02.161Z,0
2019-04-26T00:58:00.819Z,0
2019-04-26T00:58:59.370Z,0
2019-04-26T00:59:58.012Z,0
2019-04-26T01:00:56.666Z,0
2019-04-26T01:01:55.165Z,0
2019-04-26T01:02:53.725Z,0
2019-04-26T01:03:52.283Z,0
2019-04-26T01:04:50.838Z,0
2019-04-26T01:05:59.319Z,0
2019-04-26T01:06:47.971Z,0
2019-04-26T01:07:46.721Z,0
2019-04-26T01:08:45.298Z,0
2019-04-26T01:09:43.963Z,0
2019-04-26T01:10:42.812Z,0
2019-04-26T01:11:41.370Z,0
2019-04-26T01:12:39.934Z,0
2019-04-26T01:13:38.448Z,0
2019-04-26T01:14:37.097Z,0
2019-04-26T01:15:35.616Z,0
2019-04-26T01:16:34.320Z,0
2019-04-26T01:17:32.956Z,0
2019-04-26T01:18:31.528Z,0
2019-04-26T01:19:30.229Z,0
2019-04-26T01:20:28.803Z,0
2019-04-26T01:21:27.344Z,0
2019-04-26T01:22:25.962Z,0
2019-04-26T01:23:25.081Z,0
2019-04-26T01:24:23.194Z,0
2019-04-26T01:25:21.635Z,0
2019-04-26T01:29:00.464Z,0
2019-04-26T01:29:59.023Z,0
2019-04-26T01:30:57.578Z,0
2019-04-26T01:31:56.237Z,0
2019-04-26T01:32:54.907Z,0
2019-04-26T01:33:53.436Z,0
2019-04-26T01:34:52.002Z,0
2019-04-26T01:35:50.635Z,0
2019-04-26T01:36:49.207Z,0
2019-04-26T01:37:47.777Z,0
2019-04-26T01:38:46.307Z,0
2019-04-26T01:39:44.867Z,0
2019-04-26T01:40:43.456Z,0
2019-04-26T01:41:42.033Z,0
2019-04-26T01:42:40.796Z,0
2019-04-26T01:43:39.351Z,0
2019-04-26T01:44:38.032Z,0
2019-04-26T01:45:36.785Z,0
2019-04-26T01:46:35.306Z,0
2019-04-26T01:47:33.879Z,0
2019-04-26T01:48:32.426Z,0
2019-04-26T01:49:30.950Z,0
2019-04-26T01:50:29.511Z,0
2019-04-26T01:51:28.725Z,0
2019-04-26T01:52:27.623Z,0
2019-04-26T01:53:25.198Z,0
2019-04-26T01:54:24.137Z,0
2019-04-26T01:55:22.955Z,0
2019-04-26T01:56:22.210Z,0
2019-04-26T01:57:19.710Z,0
2019-04-26T01:58:18.498Z,0
2019-04-26T01:59:17.073Z,0
2019-04-26T02:00:15.637Z,0
2019-04-26T02:01:14.174Z,0
2019-04-26T02:02:12.719Z,0
2019-04-26T02:03:11.278Z,0
2019-04-26T02:04:09.825Z,0
2019-04-26T02:05:08.696Z,0
2019-04-26T02:06:07.275Z,0
2019-04-26T02:07:05.861Z,0
2019-04-26T02:08:04.668Z,0
2019-04-26T02:09:03.232Z,0
2019-04-26T02:10:01.749Z,0
2019-04-26T02:11:00.345Z,0
2019-04-26T02:11:58.931Z,0
2019-04-26T02:12:57.571Z,0
2019-04-26T02:13:56.441Z,0
2019-04-26T02:14:55.033Z,0
2019-04-26T02:15:53.563Z,0
2019-04-26T02:16:52.271Z,0
2019-04-26T02:17:50.861Z,0
2019-04-26T02:18:49.417Z,0
2019-04-26T02:19:47.949Z,0
2019-04-26T02:20:46.496Z,0
2019-04-26T02:21:45.092Z,0
2019-04-26T02:22:43.676Z,0
2019-04-26T02:23:42.304Z,0
2019-04-26T02:24:41.036Z,0
2019-04-26T02:25:39.635Z,0
2019-04-26T02:26:38.467Z,0
2019-04-26T02:27:37.002Z,0
2019-04-26T02:28:35.551Z,0
2019-04-26T02:29:34.733Z,0
2019-04-26T02:30:34.629Z,0
2019-04-26T02:31:33.213Z,0
2019-04-26T02:32:31.327Z,0
2019-04-26T02:33:29.600Z,0
2019-04-26T02:34:28.896Z,0
2019-04-26T02:35:26.651Z,0
2019-04-26T02:36:25.346Z,0
2019-04-26T02:37:22.717Z,0
2019-04-26T02:38:21.297Z,0
2019-04-26T02:39:19.894Z,0
2019-04-26T02:40:18.719Z,0
2019-04-26T02:41:17.273Z,0
2019-04-26T02:42:15.890Z,0
2019-04-26T02:43:14.795Z,0
2019-04-26T02:44:13.359Z,0
2019-04-26T02:45:11.869Z,0
2019-04-26T02:46:10.505Z,0
2019-04-26T02:47:09.129Z,0
2019-04-26T02:48:07.602Z,0
2019-04-26T02:49:06.157Z,0
2019-04-26T02:50:04.838Z,0
2019-04-26T02:51:03.374Z,0
2019-04-26T02:52:01.937Z,0
2019-04-26T02:53:00.556Z,0
2019-04-26T02:53:59.083Z,0
2019-04-26T02:54:57.608Z,0
2019-04-26T02:55:56.291Z,0
2019-04-26T02:56:54.988Z,0
2019-04-26T02:57:53.562Z,0
2019-04-26T02:58:52.147Z,0
2019-04-26T02:59:50.835Z,0
2019-04-26T03:00:49.402Z,0
2019-04-26T03:01:48.082Z,0
2019-04-26T03:02:46.662Z,0
2019-04-26T03:03:45.269Z,0
2019-04-26T03:04:43.790Z,0
2019-04-26T03:05:42.520Z,0
2019-04-26T03:06:42.759Z,0
2019-04-26T03:07:39.815Z,0
2019-04-26T03:08:39.328Z,0
2019-04-26T03:09:37.062Z,0
2019-04-26T03:10:36.540Z,0
2019-04-26T03:11:35.118Z,0
2019-04-26T03:12:34.354Z,0
2019-04-26T03:13:32.657Z,0
2019-04-26T03:14:31.225Z,0
2019-04-26T03:15:28.401Z,0
2019-04-26T03:16:26.954Z,0
2019-04-26T03:17:25.499Z,0
2019-04-26T03:18:27.848Z,0
2019-04-26T03:19:25.532Z,0
2019-04-26T03:20:24.907Z,0
2019-04-26T03:21:23.481Z,0
2019-04-26T03:22:22.042Z,0
2019-04-26T03:23:20.885Z,0
2019-04-26T03:24:19.383Z,0
2019-04-26T03:25:18.006Z,0
2019-04-26T03:26:16.634Z,0
2019-04-26T03:27:15.247Z,0
2019-04-26T03:28:13.782Z,0
2019-04-26T03:29:12.446Z,0
2019-04-26T03:30:22.030Z,0
2019-04-26T03:31:16.523Z,0
2019-04-26T03:32:16.402Z,0
2019-04-26T03:33:13.479Z,0
2019-04-26T03:34:12.150Z,0
2019-04-26T03:35:12.481Z,0
2019-04-26T03:36:11.063Z,0
2019-04-26T03:37:19.962Z,0
2019-04-26T03:38:08.259Z,0
2019-04-26T03:39:07.000Z,0
2019-04-26T03:40:05.552Z,0
2019-04-26T03:41:04.316Z,0
2019-04-26T03:42:02.914Z,0
2019-04-26T03:43:01.493Z,0
2019-04-26T03:44:00.060Z,0
2019-04-26T03:44:58.615Z,0
2019-04-26T03:45:57.143Z,0
2019-04-26T03:46:55.699Z,0
2019-04-26T03:47:54.654Z,0
2019-04-26T03:48:53.255Z,0
2019-04-26T03:49:54.325Z,0
2019-04-26T03:50:50.549Z,0
2019-04-26T03:51:49.117Z,0
2019-04-26T03:52:47.671Z,0
2019-04-26T03:53:46.273Z,0
2019-04-26T03:54:44.819Z,0
2019-04-26T03:55:44.145Z,0
2019-04-26T03:56:43.484Z,0
2019-04-26T03:57:42.540Z,0
2019-04-26T03:58:40.424Z,0
2019-04-26T03:59:38.805Z,0
2019-04-26T04:00:37.102Z,0
2019-04-26T04:01:36.814Z,0
2019-04-26T04:02:33.658Z,0
2019-04-26T04:03:32.313Z,0
2019-04-26T04:04:30.876Z,0
2019-04-26T04:05:29.422Z,0
2019-04-26T04:06:28.004Z,0
2019-04-26T04:07:36.578Z,0
2019-04-26T04:08:25.335Z,0
2019-04-26T04:09:23.987Z,0
2019-04-26T04:10:22.885Z,4
2019-04-26T04:11:21.510Z,0
2019-04-26T04:12:20.029Z,0
2019-04-26T04:13:18.554Z,4
2019-04-26T04:14:17.211Z,4
2019-04-26T04:15:15.650Z,4
2019-04-26T04:16:14.282Z,4
2019-04-26T04:17:12.955Z,4
2019-04-26T04:18:11.492Z,0
2019-04-26T04:19:10.178Z,4
2019-04-26T04:20:08.916Z,4
2019-04-26T04:21:07.591Z,4
2019-04-26T04:22:06.175Z,8
2019-04-26T04:23:04.754Z,8
2019-04-26T04:24:03.347Z,8
2019-04-26T04:25:01.886Z,8
2019-04-26T04:26:00.721Z,8
2019-04-26T04:26:59.297Z,8
2019-04-26T04:27:57.822Z,12
2019-04-26T04:28:56.591Z,12
2019-04-26T04:29:55.708Z,12
2019-04-26T04:30:53.706Z,12
2019-04-26T04:31:52.289Z,12
2019-04-26T04:32:52.115Z,12
2019-04-26T04:33:49.655Z,16
2019-04-26T04:34:49.598Z,20
2019-04-26T04:35:47.820Z,24
2019-04-26T04:36:46.825Z,28
2019-04-26T04:37:57.482Z,28
2019-04-26T04:38:44.003Z,28
2019-04-26T04:39:42.646Z,32
2019-04-26T04:40:40.844Z,36
2019-04-26T04:41:39.004Z,40
2019-04-26T04:42:37.623Z,44
2019-04-26T04:43:36.202Z,44
2019-04-26T04:44:34.898Z,48
2019-04-26T04:45:33.436Z,44
2019-04-26T04:46:32.002Z,52
2019-04-26T04:47:31.179Z,56
2019-04-26T04:48:29.126Z,56
2019-04-26T04:49:27.676Z,56
2019-04-26T04:50:26.314Z,56
2019-04-26T04:51:25.013Z,52
2019-04-26T04:52:23.607Z,48
2019-04-26T04:53:22.255Z,48
2019-04-26T04:54:21.009Z,48
2019-04-26T04:55:19.540Z,48
2019-04-26T04:56:18.109Z,52
2019-04-26T04:57:16.695Z,60
2019-04-26T04:58:15.964Z,64
2019-04-26T04:59:14.693Z,72
2019-04-26T05:00:13.213Z,80
2019-04-26T05:01:11.767Z,88
2019-04-26T05:02:10.364Z,92
2019-04-26T05:03:08.921Z,92
2019-04-26T05:04:07.456Z,88
2019-04-26T05:05:06.014Z,84
2019-04-26T05:06:07.501Z,88
2019-04-26T05:07:03.413Z,92
2019-04-26T05:08:06.620Z,104
2019-04-26T05:09:00.809Z,108
2019-04-26T05:09:59.379Z,120
2019-04-26T05:10:57.977Z,128
2019-04-26T05:11:56.505Z,136
2019-04-26T05:12:55.026Z,140
2019-04-26T05:13:54.197Z,140
2019-04-26T05:14:52.269Z,144
2019-04-26T05:15:50.944Z,152
2019-04-26T05:16:50.440Z,156
2019-04-26T05:17:48.136Z,160
2019-04-26T05:18:46.919Z,160
2019-04-26T05:19:46.743Z,160
2019-04-26T05:20:44.413Z,172
2019-04-26T05:21:42.586Z,180
2019-04-26T05:22:41.145Z,184
2019-04-26T05:23:39.697Z,176
2019-04-26T05:24:38.252Z,176
2019-04-26T05:25:36.775Z,172
2019-04-26T05:26:35.333Z,172
2019-04-26T05:27:34.005Z,184
2019-04-26T05:28:32.792Z,180
2019-04-26T05:29:31.431Z,188
2019-04-26T05:30:29.969Z,200
2019-04-26T05:31:28.604Z,212
2019-04-26T05:32:27.178Z,224
2019-04-26T05:33:25.750Z,240
2019-04-26T05:34:24.338Z,236
2019-04-26T05:35:22.903Z,216
2019-04-26T05:36:21.460Z,220
2019-04-26T05:37:19.994Z,228
2019-04-26T05:38:18.900Z,240
2019-04-26T05:39:17.341Z,256
2019-04-26T05:40:15.993Z,280
2019-04-26T05:41:14.749Z,284
2019-04-26T05:42:13.277Z,292
2019-04-26T05:43:11.828Z,320
2019-04-26T05:44:10.408Z,356
2019-04-26T05:45:08.995Z,388
2019-04-26T05:46:07.584Z,428
2019-04-26T05:47:06.156Z,468
2019-04-26T05:48:11.143Z,480
2019-04-26T05:49:03.555Z,512
2019-04-26T05:50:02.479Z,524
2019-04-26T05:51:02.102Z,552
2019-04-26T05:51:59.522Z,540
2019-04-26T05:52:58.155Z,544
2019-04-26T05:53:57.147Z,552
2019-04-26T05:54:56.140Z,548
2019-04-26T05:55:53.971Z,560
2019-04-26T05:56:52.683Z,584
2019-04-26T05:57:51.608Z,552
2019-04-26T05:58:51.138Z,508
2019-04-26T05:59:48.290Z,448
2019-04-26T06:00:47.055Z,384
2019-04-26T06:01:45.632Z,368
2019-04-26T06:02:44.226Z,376
2019-04-26T06:03:42.765Z,380
2019-04-26T06:04:41.318Z,404
2019-04-26T06:05:40.027Z,396
2019-04-26T06:06:38.804Z,392
2019-04-26T06:07:37.376Z,352
2019-04-26T06:08:35.974Z,320
2019-04-26T06:09:34.746Z,324
2019-04-26T06:10:33.285Z,316
2019-04-26T06:11:31.828Z,308
2019-04-26T06:12:30.386Z,324
2019-04-26T06:13:28.991Z,348
2019-04-26T06:14:27.584Z,324
2019-04-26T06:15:26.120Z,316
2019-04-26T06:16:24.937Z,304
2019-04-26T06:17:23.479Z,296
2019-04-26T06:18:22.068Z,272
2019-04-26T06:19:20.748Z,244
2019-04-26T06:20:22.958Z,236
2019-04-26T06:21:17.952Z,232
2019-04-26T06:22:16.519Z,220
2019-04-26T06:23:15.046Z,240
2019-04-26T06:24:13.627Z,248
2019-04-26T06:25:12.256Z,248
2019-04-26T06:26:11.020Z,264
2019-04-26T06:27:14.053Z,276
2019-04-26T06:28:08.282Z,284
2019-04-26T06:29:07.028Z,312
2019-04-26T06:30:05.592Z,332
2019-04-26T06:31:04.175Z,360
2019-04-26T06:32:02.744Z,372
2019-04-26T06:33:04.677Z,384
2019-04-26T06:34:00.846Z,396
2019-04-26T06:34:59.302Z,408
2019-04-26T06:35:57.281Z,452
2019-04-26T06:36:56.064Z,436
2019-04-26T06:37:55.288Z,464
2019-04-26T06:38:54.240Z,456
2019-04-26T06:39:51.380Z,468
2019-04-26T06:40:50.014Z,456
2019-04-26T06:41:48.729Z,460
2019-04-26T06:44:28.894Z,500
2019-04-26T06:45:27.453Z,540
2019-04-26T06:46:25.990Z,600
2019-04-26T06:47:24.624Z,604
2019-04-26T06:48:23.280Z,612
2019-04-26T06:49:21.959Z,632
2019-04-26T06:50:20.590Z,632
2019-04-26T06:51:24.396Z,620
2019-04-26T06:52:17.714Z,600
2019-04-26T06:53:16.421Z,600
2019-04-26T06:54:15.099Z,576
2019-04-26T06:55:13.643Z,556
2019-04-26T06:56:12.250Z,576
2019-04-26T06:57:14.012Z,560
2019-04-26T06:58:09.561Z,552
2019-04-26T06:59:08.250Z,552
2019-04-26T07:00:06.853Z,508
2019-04-26T07:01:05.522Z,496
2019-04-26T07:02:04.025Z,512
2019-04-26T07:03:03.539Z,476
2019-04-26T07:04:02.064Z,456
2019-04-26T07:05:00.683Z,440
2019-04-26T07:05:58.900Z,412
2019-04-26T07:06:56.835Z,420
2019-04-26T07:07:55.400Z,420
2019-04-26T07:08:57.437Z,400
2019-04-26T07:09:52.720Z,392
2019-04-26T07:10:51.359Z,376
2019-04-26T07:11:49.912Z,392
2019-04-26T07:12:48.716Z,412
2019-04-26T07:13:47.326Z,392
2019-04-26T07:14:45.856Z,428
2019-04-26T07:15:44.403Z,452
2019-04-26T07:16:42.953Z,444
2019-04-26T07:17:41.487Z,468
2019-04-26T07:18:40.055Z,524
2019-04-26T07:19:38.816Z,540
2019-04-26T07:20:37.350Z,508
2019-04-26T07:21:35.996Z,532
2019-04-26T07:22:35.776Z,500
2019-04-26T07:23:33.476Z,520
2019-04-26T07:24:32.015Z,520
2019-04-26T07:25:30.555Z,536
2019-04-26T07:26:29.122Z,608
2019-04-26T07:27:27.654Z,652
2019-04-26T07:28:26.470Z,696
2019-04-26T07:29:25.045Z,740
2019-04-26T07:30:23.693Z,788
2019-04-26T07:31:22.249Z,792
2019-04-26T07:32:20.914Z,780
2019-04-26T07:33:19.449Z,800
2019-04-26T07:34:18.069Z,772
2019-04-26T07:35:16.643Z,732
2019-04-26T07:36:15.274Z,708
2019-04-26T07:37:13.815Z,664
2019-04-26T07:40:20.026Z,468
2019-04-26T07:41:18.568Z,412
2019-04-26T07:42:17.144Z,396
2019-04-26T07:43:15.700Z,376
2019-04-26T07:44:14.308Z,384
2019-04-26T07:45:12.940Z,348
2019-04-26T07:46:12.634Z,336
2019-04-26T07:47:11.084Z,364
2019-04-26T07:48:09.497Z,356
2019-04-26T07:49:08.061Z,356
2019-04-26T07:50:06.045Z,344
2019-04-26T07:51:04.679Z,376
2019-04-26T07:52:04.267Z,472
2019-04-26T07:53:03.193Z,496
2019-04-26T07:59:08.926Z,724
2019-04-26T08:00:08.563Z,676
2019-04-26T08:01:06.116Z,684
2019-04-26T08:02:05.059Z,748
2019-04-26T08:03:04.089Z,764
2019-04-26T08:04:03.752Z,724
2019-04-26T08:05:00.580Z,760
2019-04-26T08:08:40.979Z,744
2019-04-26T08:09:39.559Z,752
2019-04-26T08:10:38.099Z,748
2019-04-26T08:11:36.841Z,764
2019-04-26T08:12:35.392Z,736
2019-04-26T08:13:33.994Z,764
2019-04-26T08:14:32.672Z,712
2019-04-26T08:15:31.208Z,760
2019-04-26T08:16:29.748Z,760
2019-04-26T08:17:28.519Z,788
2019-04-26T08:18:27.171Z,816
2019-04-26T08:19:25.693Z,856
2019-04-26T08:20:24.200Z,880
2019-04-26T08:21:22.791Z,948
2019-04-26T08:22:24.435Z,968
2019-04-26T08:23:37.799Z,1012
2019-04-26T08:28:56.558Z,932
2019-04-26T08:29:52.731Z,956
2019-04-26T08:30:51.362Z,988
2019-04-26T08:31:53.319Z,1044
2019-04-26T08:32:48.709Z,1196
2019-04-26T08:33:48.667Z,1344
2019-04-26T08:34:45.861Z,1436
2019-04-26T08:35:48.621Z,1632
2019-04-26T08:36:43.198Z,1440
2019-04-26T08:37:41.774Z,1384
2019-04-26T08:38:40.341Z,1532
2019-04-26T08:39:45.062Z,1588
2019-04-26T08:40:37.479Z,1472
2019-04-26T08:41:39.079Z,1476
2019-04-26T08:42:34.611Z,1520
2019-04-26T08:43:33.222Z,1452
2019-04-26T08:44:34.443Z,1412
2019-04-26T08:45:30.389Z,1388
2019-04-26T08:46:32.201Z,1384
2019-04-26T08:47:27.550Z,1352
2019-04-26T08:48:27.579Z,1296
2019-04-26T08:49:24.907Z,1164
2019-04-26T08:50:23.517Z,1080
2019-04-26T08:51:22.156Z,1064
2019-04-26T08:52:20.649Z,1164
2019-04-26T08:53:19.205Z,1172
2019-04-26T08:54:17.762Z,1328
2019-04-26T08:55:16.366Z,1240
2019-04-26T08:56:15.439Z,1176
2019-04-26T08:57:13.676Z,1196
2019-04-26T08:58:12.326Z,1152
2019-04-26T08:59:10.963Z,1348
2019-04-26T09:00:09.584Z,1432
2019-04-26T09:01:08.175Z,1236
2019-04-26T09:02:06.785Z,1344
2019-04-26T09:03:11.190Z,1500
2019-04-26T09:04:04.150Z,1496
2019-04-26T09:05:02.827Z,1520
2019-04-26T09:06:01.493Z,1484
2019-04-26T09:07:00.178Z,1324
2019-04-26T09:07:58.949Z,1212
2019-04-26T09:08:57.413Z,1160
2019-04-26T09:09:57.285Z,1304
2019-04-26T09:10:54.701Z,1484
2019-04-26T09:11:59.339Z,1316
2019-04-26T09:12:51.891Z,1052
2019-04-26T09:13:50.633Z,1164
2019-04-26T09:14:49.300Z,1000
2019-04-26T09:15:47.855Z,856
2019-04-26T09:16:50.283Z,808
2019-04-26T09:17:45.023Z,712
2019-04-26T09:18:48.082Z,564
2019-04-26T09:19:42.230Z,460
2019-04-26T09:20:42.754Z,416
2019-04-26T09:21:39.442Z,392
2019-04-26T09:22:37.967Z,440
2019-04-26T09:23:40.018Z,580
2019-04-26T09:24:35.339Z,684
2019-04-26T09:25:35.864Z,700
2019-04-26T09:26:32.760Z,704
2019-04-26T09:27:31.164Z,696
2019-04-26T09:28:29.736Z,756
2019-04-26T09:29:30.256Z,800
2019-04-26T09:30:33.597Z,796
2019-04-26T09:31:25.375Z,828
2019-04-26T09:32:24.080Z,772
2019-04-26T09:33:22.609Z,912
2019-04-26T09:34:21.301Z,1060
2019-04-26T09:35:19.735Z,1324
2019-04-26T09:36:18.450Z,1408
2019-04-26T09:37:17.179Z,1276
2019-04-26T09:38:15.737Z,1172
2019-04-26T09:39:14.348Z,1300
2019-04-26T09:40:19.643Z,1696
2019-04-26T09:41:11.448Z,1800
2019-04-26T09:42:09.972Z,1700
2019-04-26T09:43:10.346Z,1564
2019-04-26T09:44:07.384Z,1392
2019-04-26T09:45:06.076Z,1244
2019-04-26T09:46:04.837Z,1072
2019-04-26T09:47:03.416Z,1140
2019-04-26T09:48:02.011Z,1440
2019-04-26T09:50:42.333Z,1652
2019-04-26T09:53:22.708Z,1892
2019-04-26T09:57:40.048Z,2432
2019-04-26T10:14:03.118Z,2560
2019-04-26T10:15:01.704Z,2508
2019-04-26T10:19:44.436Z,2188
2019-04-26T10:20:43.086Z,2248
2019-04-26T10:21:41.634Z,2292
2019-04-26T10:22:40.250Z,2296
2019-04-26T10:23:38.854Z,2200
2019-04-26T10:24:37.453Z,1904
2019-04-26T10:25:36.036Z,1940
2019-04-26T10:26:34.563Z,1956
2019-04-26T10:27:36.284Z,1984
2019-04-26T10:28:31.807Z,1944
2019-04-26T10:29:30.616Z,1808
2019-04-26T10:30:29.429Z,1856
2019-04-26T10:31:27.985Z,2036
2019-04-26T10:32:27.848Z,1844
2019-04-26T10:33:25.039Z,1660
2019-04-26T10:34:23.623Z,1796
2019-04-26T10:35:23.215Z,2004
2019-04-26T10:36:20.697Z,1948
2019-04-26T10:37:19.351Z,1908
2019-04-26T10:38:19.230Z,1876
2019-04-26T10:39:16.696Z,1832
2019-04-26T10:40:15.258Z,1892
2019-04-26T10:41:13.829Z,2080
2019-04-26T10:42:12.675Z,2224
2019-04-26T10:43:11.213Z,2264
2019-04-26T10:44:09.789Z,2388
2019-04-26T10:45:10.336Z,2348
2019-04-26T10:46:06.966Z,2280
2019-04-26T10:47:06.016Z,2300
2019-04-26T10:48:04.127Z,2376
2019-04-26T10:49:09.026Z,2488
2019-04-26T10:50:01.461Z,2500
2019-04-26T10:51:03.169Z,2536
2019-04-26T10:51:58.752Z,2500
2019-04-26T10:52:57.294Z,2428
2019-04-26T10:53:55.879Z,2356
2019-04-26T10:54:54.452Z,2320
2019-04-26T10:55:52.989Z,2328
2019-04-26T10:56:51.545Z,2240
2019-04-26T10:57:50.123Z,2364
2019-04-26T10:58:48.819Z,2224
2019-04-26T10:59:47.468Z,2096
2019-04-26T11:00:48.330Z,2040
2019-04-26T11:01:44.710Z,2076
2019-04-26T11:02:43.297Z,2148
2019-04-26T11:03:41.856Z,2108
2019-04-26T11:04:41.327Z,2192
2019-04-26T11:05:39.036Z,2116
2019-04-26T11:06:37.575Z,2136
2019-04-26T11:07:36.117Z,2272
2019-04-26T11:08:34.707Z,2032
2019-04-26T11:09:33.286Z,1940
2019-04-26T11:10:31.821Z,1920
2019-04-26T11:11:30.535Z,2204
2019-04-26T11:12:29.258Z,2080
2019-04-26T11:13:27.797Z,1924
2019-04-26T11:14:26.671Z,2080
2019-04-26T11:15:25.204Z,2028
2019-04-26T11:16:23.767Z,1956
2019-04-26T11:17:22.349Z,1944
2019-04-26T11:18:27.191Z,2060
2019-04-26T11:19:19.466Z,2104
2019-04-26T11:20:18.023Z,2056
2019-04-26T11:21:20.763Z,1816
2019-04-26T11:22:28.268Z,1664
2019-04-26T11:23:14.180Z,1824
2019-04-26T11:24:15.098Z,1700
2019-04-26T11:25:11.400Z,1732
2019-04-26T11:26:09.935Z,1728
2019-04-26T11:27:09.538Z,1636
2019-04-26T11:28:07.066Z,1676
2019-04-26T11:29:05.653Z,1596
2019-04-26T11:30:11.382Z,1568
2019-04-26T11:31:02.963Z,1440
2019-04-26T11:33:00.202Z,1428
2019-04-26T11:34:04.932Z,1380
2019-04-26T11:34:58.610Z,1304
2019-04-26T11:37:39.860Z,1304
2019-04-26T11:38:38.630Z,1232
2019-04-26T11:39:40.345Z,1192
2019-04-26T11:40:14.039Z,1468
2019-04-26T11:40:35.930Z,1216
2019-04-26T11:41:37.505Z,1204
2019-04-26T11:42:33.099Z,1116
2019-04-26T11:43:31.689Z,1112
2019-04-26T11:44:30.299Z,1168
2019-04-26T11:45:29.136Z,1232
2019-04-26T11:46:30.008Z,1252
2019-04-26T11:47:26.338Z,1252
2019-04-26T11:48:25.366Z,1384
2019-04-26T11:49:23.655Z,1456
2019-04-26T11:50:22.208Z,1472
2019-04-26T11:51:23.462Z,1560
2019-04-26T11:52:19.300Z,1756
2019-04-26T11:53:17.884Z,1924
2019-04-26T11:54:16.883Z,2048
2019-04-26T11:55:15.188Z,2256
2019-04-26T11:56:13.739Z,2276
2019-04-26T11:57:13.603Z,2448
2019-04-26T11:58:10.981Z,2504
2019-04-26T11:59:09.513Z,2552
2019-04-26T12:00:08.057Z,2504
2019-04-26T12:01:06.852Z,2608
2019-04-26T12:02:05.416Z,2664
2019-04-26T12:03:03.943Z,2680
2019-04-26T12:04:02.540Z,2708
2019-04-26T12:05:01.257Z,2720
2019-04-26T12:05:59.809Z,2740
2019-04-26T12:06:58.388Z,2716
2019-04-26T12:07:57.078Z,2608
2019-04-26T12:08:55.655Z,2420
2019-04-26T12:09:54.212Z,2296
2019-04-26T12:10:52.945Z,2016
2019-04-26T12:12:03.887Z,1800
2019-04-26T12:12:51.763Z,1548
2019-04-26T12:13:48.694Z,1260
2019-04-26T12:14:47.430Z,1160
2019-04-26T12:15:46.019Z,1292
2019-04-26T12:16:48.193Z,1468
2019-04-26T12:17:43.526Z,1412
2019-04-26T12:18:44.065Z,1352
2019-04-26T12:19:40.854Z,1304
2019-04-26T12:20:39.612Z,1280
2019-04-26T12:21:38.353Z,1412
2019-04-26T12:22:39.282Z,1440
2019-04-26T12:23:35.827Z,1524
2019-04-26T12:24:34.569Z,1744
2019-04-26T12:25:33.012Z,2008
2019-04-26T12:26:42.266Z,2272
2019-04-26T12:27:30.626Z,2320
2019-04-26T12:28:28.929Z,2080
2019-04-26T12:29:27.574Z,1600
2019-04-26T12:30:26.778Z,1384
2019-04-26T12:31:24.861Z,1308
2019-04-26T12:32:23.433Z,1332
2019-04-26T12:33:21.988Z,1348
2019-04-26T12:34:20.555Z,1332
2019-04-26T12:35:19.370Z,1300
2019-04-26T12:36:17.947Z,1208
2019-04-26T12:37:19.846Z,1216
2019-04-26T12:38:15.302Z,1324
2019-04-26T12:39:13.820Z,1548
2019-04-26T12:40:12.491Z,1704
2019-04-26T12:41:11.569Z,1844
2019-04-26T12:42:12.202Z,1840
2019-04-26T12:43:08.232Z,1776
2019-04-26T12:44:07.093Z,1748
2019-04-26T12:45:05.647Z,1928
2019-04-26T12:46:04.193Z,1952
2019-04-26T12:47:04.879Z,1912
2019-04-26T12:48:01.636Z,1828
2019-04-26T12:49:00.249Z,1812
2019-04-26T12:50:00.210Z,1732
2019-04-26T12:50:57.514Z,1784
2019-04-26T12:51:56.067Z,1780
2019-04-26T12:52:55.452Z,1780
2019-04-26T12:53:53.453Z,1760
2019-04-26T12:54:52.013Z,1676
2019-04-26T12:55:53.164Z,1584
2019-04-26T12:56:49.259Z,1636
2019-04-26T12:57:47.822Z,1628
2019-04-26T12:58:49.887Z,1736
2019-04-26T12:59:44.922Z,1808
2019-04-26T13:02:25.268Z,1976
2019-04-26T13:06:42.853Z,2028
2019-04-26T13:09:21.659Z,2032
2019-04-26T13:10:16.455Z,2032
2019-04-26T13:14:59.526Z,1916
2019-04-26T13:15:58.060Z,1984
2019-04-26T13:16:57.136Z,1984
2019-04-26T13:17:55.250Z,1964
2019-04-26T13:25:45.269Z,1824
2019-04-26T13:26:43.776Z,1800
2019-04-26T13:27:45.534Z,1740
2019-04-26T13:30:49.627Z,1560
2019-04-26T13:31:48.178Z,1564
2019-04-26T13:32:49.111Z,1536
2019-04-26T13:33:45.450Z,1488
2019-04-26T13:34:43.991Z,1440
2019-04-26T13:35:45.410Z,1396
2019-04-26T13:36:41.239Z,1356
2019-04-26T13:37:39.973Z,1348
2019-04-26T13:38:39.264Z,1324
2019-04-26T13:39:37.222Z,1368
2019-04-26T13:40:35.751Z,1380
2019-04-26T13:41:34.889Z,1392
2019-04-26T13:42:32.856Z,1388
2019-04-26T13:43:31.389Z,1360
2019-04-26T13:44:32.210Z,1324
2019-04-26T13:45:28.559Z,1420
2019-04-26T13:46:27.398Z,1484
2019-04-26T13:47:25.948Z,1500
2019-04-26T13:48:24.564Z,1452
2019-04-26T13:49:23.117Z,1380
2019-04-26T13:50:22.289Z,1296
2019-04-26T13:51:20.307Z,1196
2019-04-26T13:52:18.884Z,1136
2019-04-26T13:53:17.422Z,1100
2019-04-26T13:54:16.377Z,1056
2019-04-26T13:55:14.493Z,1032
2019-04-26T13:56:13.068Z,1032
2019-04-26T13:57:11.609Z,1060
2019-04-26T13:58:10.183Z,1092
2019-04-26T13:59:08.817Z,1080
2019-04-26T14:00:11.332Z,1080
2019-04-26T14:01:06.104Z,1108
2019-04-26T14:02:11.147Z,1160
2019-04-26T14:03:03.517Z,1156
2019-04-26T14:04:02.537Z,1160
2019-04-26T14:05:00.646Z,1140
2019-04-26T14:05:59.307Z,1128
2019-04-26T14:06:57.979Z,1132
2019-04-26T14:07:56.576Z,1156
2019-04-26T14:08:57.830Z,1200
2019-04-26T14:09:53.757Z,1216
2019-04-26T14:10:52.403Z,1200
2019-04-26T14:11:50.968Z,1148
2019-04-26T14:12:49.876Z,1132
2019-04-26T14:13:48.110Z,1132
2019-04-26T14:14:46.690Z,1168
2019-04-26T14:15:48.644Z,1224
2019-04-26T14:16:43.883Z,1288
2019-04-26T14:17:42.521Z,1356
2019-04-26T14:18:41.201Z,1472
2019-04-26T14:19:39.793Z,1516
2019-04-26T14:20:38.401Z,1588
2019-04-26T14:21:37.063Z,1632
2019-04-26T14:22:36.953Z,1696
2019-04-26T14:23:34.194Z,1728
2019-04-26T14:24:32.939Z,1744
2019-04-26T14:25:32.025Z,1740
2019-04-26T14:26:30.071Z,1740
2019-04-26T14:27:28.607Z,1740
2019-04-26T14:28:27.174Z,1780
2019-04-26T14:29:28.331Z,1816
2019-04-26T14:30:24.290Z,1832
2019-04-26T14:31:22.995Z,1844
2019-04-26T14:32:22.818Z,1716
2019-04-26T14:33:20.186Z,1684
2019-04-26T14:34:18.827Z,1708
2019-04-26T14:35:17.610Z,1792
2019-04-26T14:36:17.803Z,1696
2019-04-26T14:37:15.324Z,1784
2019-04-26T14:38:13.559Z,1836
2019-04-26T14:39:14.434Z,2004
2019-04-26T14:40:17.010Z,1944
2019-04-26T14:41:13.015Z,2032
2019-04-26T14:42:08.170Z,2028
2019-04-26T14:43:07.244Z,1932
2019-04-26T14:44:15.060Z,1604
2019-04-26T14:45:06.025Z,1368